createdAt,value
2022-08-28T00:01:57.741Z,90.38
2022-08-28T00:04:24.687Z,110.55
2022-08-28T00:06:51.519Z,105.63
2022-08-28T00:09:18.993Z,92.63
2022-08-28T00:11:47.088Z,97.95
2022-08-28T00:14:14.897Z,97.30
2022-08-28T00:16:42.255Z,80.88
2022-08-28T00:19:10.934Z,88.22
2022-08-28T00:21:37.891Z,100.13
2022-08-28T00:24:05.005Z,143.88
2022-08-28T00:26:50.507Z,103.22
2022-08-28T00:29:17.495Z,121.25
2022-08-28T00:31:44.863Z,84.35
2022-08-28T00:34:12.243Z,73.22
2022-08-28T00:36:40.520Z,73.57
2022-08-28T00:39:08.682Z,106.63
2022-08-28T00:41:43.161Z,116.13
2022-08-28T00:44:23.333Z,111.40
2022-08-28T00:46:52.688Z,104.70
2022-08-28T00:49:30.292Z,69.30
2022-08-28T00:52:05.819Z,108.72
2022-08-28T00:54:36.403Z,101.95
2022-08-28T00:57:06.688Z,106.05
2022-08-28T00:59:34.326Z,112.40
2022-08-28T01:02:01.442Z,108.05
2022-08-28T01:04:32.435Z,80.07
2022-08-28T01:07:05.213Z,106.20
2022-08-28T01:09:33.660Z,121.70
2022-08-28T01:12:11.702Z,121.35
2022-08-28T01:14:40.940Z,118.43
2022-08-28T01:17:09.941Z,122.30
2022-08-28T01:19:41.775Z,115.20
2022-08-28T01:22:22.492Z,120.03
2022-08-28T01:24:51.226Z,110.20
2022-08-28T01:27:18.357Z,108.78
2022-08-28T01:29:47.844Z,107.57
2022-08-28T01:32:33.442Z,70.20
2022-08-28T01:35:01.926Z,84.00
2022-08-28T01:37:29.200Z,63.50
2022-08-28T01:39:56.408Z,96.78
2022-08-28T01:42:23.823Z,90.18
2022-08-28T01:44:52.810Z,72.07
2022-08-28T01:47:20.116Z,87.07
2022-08-28T01:49:46.964Z,97.07
2022-08-28T01:52:13.911Z,84.40
2022-08-28T01:54:42.184Z,85.70
2022-08-28T01:57:09.228Z,81.60
2022-08-28T01:59:36.320Z,87.97
2022-08-28T02:02:03.768Z,102.57
2022-08-28T02:04:32.292Z,98.50
2022-08-28T02:06:59.717Z,92.70
2022-08-28T02:09:26.613Z,92.93
2022-08-28T02:11:54.994Z,106.03
2022-08-28T02:14:22.554Z,64.75
2022-08-28T02:16:50.142Z,64.53
2022-08-28T02:19:17.624Z,85.97
2022-08-28T02:21:44.476Z,88.93
2022-08-28T02:24:11.353Z,64.45
2022-08-28T02:26:38.723Z,64.90
2022-08-28T02:29:06.346Z,74.13
2022-08-28T02:31:33.622Z,79.63
2022-08-28T02:34:00.560Z,71.63
2022-08-28T02:36:27.395Z,82.45
2022-08-28T02:38:57.776Z,80.82
2022-08-28T02:41:25.320Z,95.80
2022-08-28T02:43:52.365Z,64.47
2022-08-28T02:46:19.161Z,86.15
2022-08-28T02:48:45.918Z,88.10
2022-08-28T02:51:14.904Z,72.05
2022-08-28T02:53:42.374Z,81.50
2022-08-28T02:56:09.410Z,97.88
2022-08-28T02:58:36.596Z,71.38
2022-08-28T03:01:07.367Z,76.80
2022-08-28T03:03:34.743Z,86.85
2022-08-28T03:06:03.626Z,70.35
2022-08-28T03:08:32.280Z,90.15
2022-08-28T03:11:00.554Z,95.32
2022-08-28T03:13:28.221Z,101.95
2022-08-28T03:15:55.978Z,86.15
2022-08-28T03:18:25.672Z,101.68
2022-08-28T03:20:53.847Z,92.55
2022-08-28T03:23:26.977Z,70.88
2022-08-28T03:25:55.291Z,67.60
2022-08-28T03:28:22.532Z,70.32
2022-08-28T03:30:50.590Z,60.78
2022-08-28T03:33:17.967Z,61.90
2022-08-28T03:35:44.992Z,60.90
2022-08-28T03:38:12.294Z,96.95
2022-08-28T03:40:44.399Z,64.38
2022-08-28T03:43:15.516Z,50.25
2022-08-28T03:45:58.854Z,55.88
2022-08-28T03:48:32.195Z,58.63
2022-08-28T03:51:00.584Z,54.55
2022-08-28T03:53:30.492Z,59.15
2022-08-28T03:55:58.074Z,61.03
2022-08-28T03:58:28.052Z,62.95
2022-08-28T04:00:55.492Z,57.22
2022-08-28T04:03:22.679Z,61.17
2022-08-28T04:05:49.554Z,68.32
2022-08-28T04:08:18.511Z,58.45
2022-08-28T04:10:46.733Z,57.42
2022-08-28T04:13:15.252Z,61.28
2022-08-28T04:15:42.281Z,61.55
2022-08-28T04:18:10.641Z,54.13
2022-08-28T04:20:38.499Z,52.67
2022-08-28T04:23:07.840Z,52.13
2022-08-28T04:25:34.648Z,56.38
2022-08-28T04:28:01.895Z,64.55
2022-08-28T04:30:28.925Z,53.92
2022-08-28T04:32:55.767Z,68.22
2022-08-28T04:35:22.623Z,65.78
2022-08-28T04:37:50.165Z,70.97
2022-08-28T04:40:17.237Z,63.22
2022-08-28T04:42:45.124Z,64.70
2022-08-28T04:45:12.209Z,54.50
2022-08-28T04:47:39.133Z,65.00
2022-08-28T04:50:07.465Z,62.15
2022-08-28T04:52:34.296Z,81.53
2022-08-28T04:55:01.696Z,77.93
2022-08-28T04:57:30.432Z,80.43
2022-08-28T05:00:00.144Z,62.47
2022-08-28T05:02:27.048Z,66.70
2022-08-28T05:04:53.966Z,61.10
2022-08-28T05:07:20.848Z,64.50
2022-08-28T05:09:48.429Z,57.53
2022-08-28T05:12:17.371Z,69.28
2022-08-28T05:14:44.838Z,61.60
2022-08-28T05:17:15.280Z,60.47
2022-08-28T05:19:43.238Z,61.17
2022-08-28T05:22:11.020Z,53.20
2022-08-28T05:24:39.494Z,45.80
2022-08-28T05:27:08.741Z,46.80
2022-08-28T05:29:35.783Z,47.25
2022-08-28T05:32:03.564Z,48.67
2022-08-28T05:34:31.767Z,43.90
2022-08-28T05:36:58.683Z,42.40
2022-08-28T05:39:25.520Z,41.45
2022-08-28T05:41:52.354Z,43.92
2022-08-28T05:44:20.979Z,37.97
2022-08-28T05:46:49.219Z,38.75
2022-08-28T05:49:18.383Z,35.20
2022-08-28T05:51:45.647Z,40.05
2022-08-28T05:54:12.978Z,38.50
2022-08-28T05:56:42.088Z,39.33
2022-08-28T05:59:11.363Z,38.67
2022-08-28T06:02:00.933Z,38.70
2022-08-28T06:04:30.956Z,36.35
2022-08-28T06:06:58.298Z,42.22
2022-08-28T06:09:29.666Z,43.33
2022-08-28T06:11:59.257Z,38.60
2022-08-28T06:14:26.827Z,38.55
2022-08-28T06:16:55.291Z,36.63
2022-08-28T06:19:24.744Z,38.38
2022-08-28T06:21:55.027Z,35.63
2022-08-28T06:24:22.038Z,37.08
2022-08-28T06:26:49.080Z,35.35
2022-08-28T06:29:18.425Z,38.05
2022-08-28T06:31:53.103Z,39.15
2022-08-28T06:34:20.618Z,37.80
2022-08-28T06:36:53.129Z,36.58
2022-08-28T06:39:21.448Z,35.17
2022-08-28T06:41:48.305Z,30.58
2022-08-28T06:44:19.955Z,27.60
2022-08-28T06:46:49.667Z,31.27
2022-08-28T06:49:16.490Z,31.30
2022-08-28T06:51:43.895Z,28.25
2022-08-28T06:54:11.651Z,30.10
2022-08-28T06:56:38.891Z,30.48
2022-08-28T06:59:05.953Z,30.90
2022-08-28T07:01:35.498Z,30.10
2022-08-28T07:04:06.539Z,26.75
2022-08-28T07:06:37.517Z,27.23
2022-08-28T07:09:06.700Z,24.75
2022-08-28T07:11:35.035Z,24.05
2022-08-28T07:14:03.120Z,25.02
2022-08-28T07:16:33.474Z,27.38
2022-08-28T07:19:04.165Z,30.05
2022-08-28T07:21:31.952Z,23.10
2022-08-28T07:23:59.347Z,24.55
2022-08-28T07:26:27.892Z,21.92
2022-08-28T07:28:59.459Z,21.42
2022-08-28T07:31:37.811Z,24.23
2022-08-28T07:34:05.046Z,23.55
2022-08-28T07:36:31.897Z,24.65
2022-08-28T07:38:59.916Z,21.48
2022-08-28T07:41:31.463Z,21.50
2022-08-28T07:44:17.338Z,21.23
2022-08-28T07:46:45.772Z,20.13
2022-08-28T07:49:17.063Z,21.10
2022-08-28T07:51:46.651Z,20.50
2022-08-28T07:54:17.637Z,25.02
2022-08-28T07:56:45.455Z,20.92
2022-08-28T07:59:13.094Z,20.33
2022-08-28T08:01:46.532Z,19.88
2022-08-28T08:04:16.177Z,26.35
2022-08-28T08:06:44.211Z,23.23
2022-08-28T08:09:14.312Z,21.77
2022-08-28T08:11:42.427Z,25.02
2022-08-28T08:14:09.986Z,24.88
2022-08-28T08:16:40.245Z,26.13
2022-08-28T08:19:10.060Z,24.00
2022-08-28T08:21:38.111Z,20.23
2022-08-28T08:24:06.054Z,19.08
2022-08-28T08:26:33.822Z,18.75
2022-08-28T08:29:01.103Z,16.05
2022-08-28T08:31:32.535Z,12.38
2022-08-28T08:34:02.087Z,11.88
2022-08-28T08:36:30.722Z,12.32
2022-08-28T08:39:00.415Z,12.32
2022-08-28T08:41:48.169Z,14.93
2022-08-28T08:44:34.122Z,13.30
2022-08-28T08:47:14.883Z,13.50
2022-08-28T08:49:57.920Z,12.73
2022-08-28T08:52:29.010Z,12.50
2022-08-28T08:55:10.303Z,12.43
2022-08-28T08:57:44.406Z,12.55
2022-08-28T09:00:17.389Z,16.88
2022-08-28T09:03:03.017Z,11.30
2022-08-28T09:05:56.469Z,10.73
2022-08-28T09:08:29.066Z,12.73
2022-08-28T09:11:04.055Z,13.40
2022-08-28T09:13:34.147Z,12.00
2022-08-28T09:16:05.437Z,14.13
2022-08-28T09:18:35.399Z,16.15
2022-08-28T09:21:05.598Z,12.93
2022-08-28T09:23:32.497Z,13.32
2022-08-28T09:26:05.851Z,10.77
2022-08-28T09:28:40.725Z,11.23
2022-08-28T09:31:18.957Z,10.65
2022-08-28T09:33:49.843Z,10.68
2022-08-28T09:36:31.981Z,10.90
2022-08-28T09:39:06.587Z,10.40
2022-08-28T09:42:07.735Z,11.80
2022-08-28T09:44:52.149Z,11.52
2022-08-28T09:47:51.360Z,10.73
2022-08-28T09:50:35.211Z,12.13
2022-08-28T09:53:22.390Z,11.95
2022-08-28T09:56:17.537Z,9.48
2022-08-28T09:58:57.989Z,9.00
2022-08-28T10:01:44.936Z,10.15
2022-08-28T10:04:23.826Z,10.48
2022-08-28T10:07:08.504Z,13.98
2022-08-28T10:09:56.405Z,10.23
2022-08-28T10:12:45.274Z,8.65
2022-08-28T10:15:22.389Z,12.23
2022-08-28T10:18:08.139Z,10.02
2022-08-28T10:20:35.059Z,16.42
2022-08-28T10:23:18.963Z,9.60
2022-08-28T10:25:49.614Z,12.77
2022-08-28T10:28:46.519Z,11.15
2022-08-28T10:31:41.531Z,10.15
2022-08-28T10:34:20.496Z,11.80
2022-08-28T10:36:57.313Z,21.13
2022-08-28T10:39:42.870Z,12.45
2022-08-28T10:42:10.236Z,10.80
2022-08-28T10:44:55.808Z,13.95
2022-08-28T10:47:25.733Z,7.38
2022-08-28T10:50:01.806Z,10.27
2022-08-28T10:52:35.962Z,8.60
2022-08-28T10:55:10.475Z,8.85
2022-08-28T10:57:49.053Z,10.43
2022-08-28T11:00:20.292Z,10.68
2022-08-28T11:02:59.405Z,9.50
2022-08-28T11:05:39.447Z,13.30
2022-08-28T11:08:20.624Z,10.20
2022-08-28T11:10:50.527Z,8.43
2022-08-28T11:13:45.192Z,8.75
2022-08-28T11:16:21.238Z,8.15
2022-08-28T11:19:13.997Z,8.27
2022-08-28T11:22:01.684Z,8.10
2022-08-28T11:25:03.250Z,7.30
2022-08-28T11:27:36.749Z,8.77
2022-08-28T11:30:09.804Z,8.50
2022-08-28T11:32:50.787Z,7.15
2022-08-28T11:35:20.656Z,6.85
2022-08-28T11:37:54.903Z,8.13
2022-08-28T11:40:44.437Z,6.63
2022-08-28T11:43:20.669Z,6.45
2022-08-28T11:45:47.980Z,6.13
2022-08-28T11:48:33.285Z,6.75
2022-08-28T11:51:03.856Z,6.75
2022-08-28T11:53:49.461Z,5.22
2022-08-28T11:56:44.488Z,5.57
2022-08-28T11:59:48.731Z,6.20
2022-08-28T12:02:40.364Z,8.55
2022-08-28T12:05:32.137Z,4.82
2022-08-28T12:08:02.326Z,5.35
2022-08-28T12:10:30.684Z,4.93
2022-08-28T12:12:58.686Z,6.07
2022-08-28T12:15:28.394Z,6.57
2022-08-28T12:18:06.205Z,7.40
2022-08-28T12:20:51.315Z,6.15
2022-08-28T12:23:23.980Z,8.43
2022-08-28T12:26:09.050Z,6.40
2022-08-28T12:28:52.525Z,8.43
2022-08-28T12:31:50.005Z,7.88
2022-08-28T12:34:38.390Z,9.55
2022-08-28T12:37:21.733Z,11.10
2022-08-28T12:39:49.177Z,7.57
2022-08-28T12:42:22.272Z,7.07
2022-08-28T12:44:49.354Z,7.80
2022-08-28T12:47:20.628Z,6.47
2022-08-28T12:49:47.519Z,6.82
2022-08-28T12:52:24.250Z,5.97
2022-08-28T12:54:55.166Z,5.60
2022-08-28T12:57:25.037Z,5.93
2022-08-28T12:59:56.134Z,6.15
2022-08-28T13:02:33.814Z,7.30
2022-08-28T13:05:05.552Z,7.25
2022-08-28T13:07:47.333Z,6.15
2022-08-28T13:10:20.234Z,7.28
2022-08-28T13:12:57.405Z,6.47
2022-08-28T13:15:55.701Z,7.10
2022-08-28T13:18:59.399Z,7.13
2022-08-28T13:21:33.688Z,7.97
2022-08-28T13:24:22.042Z,6.35
2022-08-28T13:26:59.249Z,6.40
2022-08-28T13:29:26.661Z,6.78
2022-08-28T13:31:59.721Z,6.93
2022-08-28T13:34:32.501Z,6.75
2022-08-28T13:37:01.921Z,5.60
2022-08-28T13:39:33.446Z,7.38
2022-08-28T13:42:11.382Z,9.60
2022-08-28T13:44:48.642Z,6.00
2022-08-28T13:47:16.227Z,6.72
2022-08-28T13:49:43.534Z,4.47
2022-08-28T13:52:11.840Z,4.28
2022-08-28T13:54:43.712Z,6.03
2022-08-28T13:57:13.674Z,6.03
2022-08-28T13:59:40.634Z,7.00
2022-08-28T14:02:30.710Z,5.97
2022-08-28T14:04:57.827Z,4.80
2022-08-28T14:07:25.139Z,5.60
2022-08-28T14:09:56.197Z,4.93
2022-08-28T14:12:24.950Z,4.80
2022-08-28T14:14:59.725Z,5.35
2022-08-28T14:17:26.609Z,7.30
2022-08-28T14:19:53.613Z,6.28
2022-08-28T14:22:20.582Z,6.28
2022-08-28T14:24:47.367Z,4.72
2022-08-28T14:27:14.766Z,7.45
2022-08-28T14:29:41.632Z,8.55
2022-08-28T14:32:08.632Z,5.03
2022-08-28T14:34:35.485Z,4.32
2022-08-28T14:37:02.340Z,4.63
2022-08-28T14:39:29.240Z,4.80
2022-08-28T14:41:56.532Z,5.28
2022-08-28T14:44:24.736Z,5.43
2022-08-28T14:46:57.020Z,5.45
2022-08-28T14:49:26.032Z,6.95
2022-08-28T14:51:54.186Z,6.82
2022-08-28T14:54:23.564Z,4.40
2022-08-28T14:56:51.673Z,4.47
2022-08-28T14:59:24.377Z,4.97
2022-08-28T15:01:52.898Z,4.28
2022-08-28T15:04:22.851Z,5.85
2022-08-28T15:06:54.800Z,4.68
2022-08-28T15:09:21.759Z,4.07
2022-08-28T15:11:48.813Z,4.28
2022-08-28T15:14:16.375Z,5.10
2022-08-28T15:16:46.162Z,8.30
2022-08-28T15:19:17.722Z,6.43
2022-08-28T15:21:53.706Z,4.97
2022-08-28T15:24:24.153Z,5.30
2022-08-28T15:26:51.056Z,4.30
2022-08-28T15:29:18.319Z,3.83
2022-08-28T15:31:48.914Z,4.90
2022-08-28T15:34:20.079Z,6.18
2022-08-28T15:36:54.730Z,5.68
2022-08-28T15:39:43.805Z,3.92
2022-08-28T15:42:11.653Z,5.72
2022-08-28T15:44:39.790Z,5.90
2022-08-28T15:47:07.210Z,5.60
2022-08-28T15:49:38.921Z,6.78
2022-08-28T15:52:15.841Z,4.18
2022-08-28T15:54:43.199Z,4.85
2022-08-28T15:57:10.087Z,4.68
2022-08-28T15:59:48.956Z,4.55
2022-08-28T16:02:19.453Z,4.63
2022-08-28T16:04:46.420Z,7.00
2022-08-28T16:07:13.341Z,4.47
2022-08-28T16:09:40.400Z,5.78
2022-08-28T16:12:07.267Z,5.07
2022-08-28T16:14:34.280Z,5.40
2022-08-28T16:17:05.723Z,6.55
2022-08-28T16:19:40.803Z,5.03
2022-08-28T16:22:09.425Z,4.47
2022-08-28T16:24:36.948Z,3.95
2022-08-28T16:27:04.433Z,5.82
2022-08-28T16:29:33.744Z,6.03
2022-08-28T16:32:00.846Z,4.68
2022-08-28T16:34:31.506Z,4.75
2022-08-28T16:36:59.452Z,6.90
2022-08-28T16:39:27.347Z,4.55
2022-08-28T16:41:54.160Z,6.20
2022-08-28T16:44:23.046Z,5.05
2022-08-28T16:46:50.287Z,6.53
2022-08-28T16:49:17.541Z,5.15
2022-08-28T16:51:44.755Z,7.43
2022-08-28T16:54:11.906Z,4.00
2022-08-28T16:56:40.075Z,5.38
2022-08-28T16:59:10.551Z,4.70
2022-08-28T17:01:38.120Z,4.97
2022-08-28T17:04:09.954Z,5.78
2022-08-28T17:06:36.795Z,5.72
2022-08-28T17:09:04.181Z,6.25
2022-08-28T17:11:31.096Z,4.53
2022-08-28T17:14:00.465Z,5.53
2022-08-28T17:16:31.263Z,5.47
2022-08-28T17:18:59.362Z,6.07
2022-08-28T17:21:45.082Z,5.10
2022-08-28T17:24:15.211Z,5.55
2022-08-28T17:26:43.687Z,5.20
2022-08-28T17:29:11.776Z,6.85
2022-08-28T17:31:38.753Z,5.57
2022-08-28T17:34:07.381Z,5.47
2022-08-28T17:36:36.991Z,6.45
2022-08-28T17:39:08.079Z,5.07
2022-08-28T17:41:35.385Z,5.47
2022-08-28T17:44:03.456Z,5.35
2022-08-28T17:46:36.743Z,7.65
2022-08-28T17:49:06.009Z,5.80
2022-08-28T17:51:43.690Z,5.15
2022-08-28T17:54:13.674Z,6.63
2022-08-28T17:56:41.370Z,4.93
2022-08-28T17:59:08.918Z,6.18
2022-08-28T18:01:36.145Z,6.78
2022-08-28T18:04:06.274Z,6.25
2022-08-28T18:06:33.124Z,5.13
2022-08-28T18:09:00.504Z,7.03
2022-08-28T18:11:28.755Z,7.03
2022-08-28T18:13:55.667Z,6.90
2022-08-28T18:16:24.534Z,6.05
2022-08-28T18:18:53.574Z,5.45
2022-08-28T18:21:21.458Z,7.03
2022-08-28T18:23:48.225Z,7.65
2022-08-28T18:26:15.317Z,7.95
2022-08-28T18:28:42.174Z,6.97
2022-08-28T18:31:09.541Z,7.88
2022-08-28T18:33:37.241Z,6.13
2022-08-28T18:36:07.875Z,6.85
2022-08-28T18:38:35.598Z,8.52
2022-08-28T18:41:04.275Z,6.22
2022-08-28T18:43:31.567Z,8.70
2022-08-28T18:46:00.830Z,6.60
2022-08-28T18:48:28.083Z,6.53
2022-08-28T18:50:55.020Z,5.78
2022-08-28T18:53:23.277Z,6.80
2022-08-28T18:55:52.789Z,5.93
2022-08-28T18:58:22.341Z,7.95
2022-08-28T19:00:49.838Z,8.40
2022-08-28T19:03:16.657Z,6.10
2022-08-28T19:05:43.698Z,6.07
2022-08-28T19:08:10.581Z,8.35
2022-08-28T19:10:37.557Z,9.98
2022-08-28T19:13:05.534Z,6.90
2022-08-28T19:15:33.810Z,6.90
2022-08-28T19:18:01.394Z,8.65
2022-08-28T19:20:29.664Z,9.82
2022-08-28T19:22:57.380Z,7.50
2022-08-28T19:25:28.270Z,8.80
2022-08-28T19:27:58.885Z,6.50
2022-08-28T19:30:28.463Z,6.78
2022-08-28T19:32:55.303Z,7.00
2022-08-28T19:35:24.606Z,7.07
2022-08-28T19:37:52.577Z,8.52
2022-08-28T19:40:20.604Z,7.85
2022-08-28T19:42:48.016Z,7.63
2022-08-28T19:45:15.254Z,7.35
2022-08-28T19:47:42.216Z,5.60
2022-08-28T19:50:11.071Z,7.40
2022-08-28T19:52:38.596Z,7.60
2022-08-28T19:55:06.679Z,7.13
2022-08-28T19:57:34.276Z,7.28
2022-08-28T20:00:02.391Z,6.47
2022-08-28T20:02:31.462Z,8.52
2022-08-28T20:04:59.478Z,7.25
2022-08-28T20:07:26.306Z,8.75
2022-08-28T20:09:53.234Z,6.32
2022-08-28T20:12:20.329Z,6.55
2022-08-28T20:14:47.968Z,9.20
2022-08-28T20:17:14.827Z,7.57
2022-08-28T20:19:42.154Z,7.00
2022-08-28T20:22:09.134Z,6.70
2022-08-28T20:24:37.263Z,6.45
2022-08-28T20:27:04.320Z,8.15
2022-08-28T20:29:31.522Z,7.07
2022-08-28T20:31:58.360Z,7.30
2022-08-28T20:34:25.213Z,7.03
2022-08-28T20:36:52.497Z,8.35
2022-08-28T20:39:21.155Z,6.85
2022-08-28T20:41:52.005Z,8.18
2022-08-28T20:44:21.256Z,7.28
2022-08-28T20:46:51.553Z,7.18
2022-08-28T20:49:22.282Z,7.88
2022-08-28T20:52:01.759Z,7.18
2022-08-28T20:54:34.362Z,7.68
2022-08-28T20:57:06.061Z,8.55
2022-08-28T20:59:40.074Z,7.82
2022-08-28T21:02:28.714Z,8.75
2022-08-28T21:04:56.223Z,7.43
2022-08-28T21:07:25.142Z,8.82
2022-08-28T21:10:05.739Z,8.57
2022-08-28T21:12:38.305Z,9.70
2022-08-28T21:15:07.522Z,9.48
2022-08-28T21:17:34.604Z,9.48
2022-08-28T21:20:04.885Z,9.73
2022-08-28T21:22:33.032Z,10.32
2022-08-28T21:25:02.970Z,8.70
2022-08-28T21:27:30.797Z,9.20
2022-08-28T21:29:59.703Z,10.85
2022-08-28T21:32:28.498Z,10.80
2022-08-28T21:34:55.467Z,11.75
2022-08-28T21:37:22.861Z,11.05
2022-08-28T21:39:49.748Z,12.38
2022-08-28T21:42:16.747Z,12.02
2022-08-28T21:44:51.514Z,10.30
2022-08-28T21:47:21.398Z,10.57
2022-08-28T21:49:50.143Z,13.50
2022-08-28T21:52:18.391Z,11.32
2022-08-28T21:54:45.907Z,11.57
2022-08-28T21:57:12.736Z,11.40
2022-08-28T21:59:40.047Z,9.77
2022-08-28T22:02:07.278Z,10.07
2022-08-28T22:04:34.879Z,11.02
2022-08-28T22:07:01.868Z,11.77
2022-08-28T22:09:29.288Z,11.02
2022-08-28T22:11:56.158Z,11.77
2022-08-28T22:14:25.104Z,11.48
2022-08-28T22:16:52.224Z,12.60
2022-08-28T22:19:19.152Z,12.05
2022-08-28T22:22:04.709Z,11.10
2022-08-28T22:24:31.630Z,15.52
2022-08-28T22:26:58.444Z,12.13
2022-08-28T22:29:25.897Z,12.32
2022-08-28T22:31:52.898Z,11.85
2022-08-28T22:34:20.307Z,13.30
2022-08-28T22:36:47.215Z,11.27
2022-08-28T22:39:14.100Z,11.52
2022-08-28T22:41:41.616Z,13.50
2022-08-28T22:44:08.839Z,13.52
2022-08-28T22:46:35.924Z,13.85
2022-08-28T22:49:03.336Z,14.00
2022-08-28T22:51:30.118Z,13.65
2022-08-28T22:53:56.998Z,14.32
2022-08-28T22:56:23.913Z,15.77
2022-08-28T22:58:50.839Z,15.57
2022-08-28T23:01:20.653Z,15.25
2022-08-28T23:03:48.407Z,15.07
2022-08-28T23:06:15.693Z,14.63
2022-08-28T23:08:42.755Z,15.82
2022-08-28T23:11:10.946Z,14.75
2022-08-28T23:13:38.338Z,14.57
2022-08-28T23:16:06.245Z,13.43
2022-08-28T23:18:51.961Z,14.93
2022-08-28T23:21:23.998Z,14.75
2022-08-28T23:23:53.833Z,14.82
2022-08-28T23:26:21.413Z,14.85
2022-08-28T23:28:48.498Z,15.00
2022-08-28T23:31:15.402Z,15.93
2022-08-28T23:33:42.810Z,19.75
2022-08-28T23:36:10.745Z,16.05
2022-08-28T23:38:40.755Z,19.73
2022-08-28T23:41:11.246Z,16.63
2022-08-28T23:43:38.505Z,15.55
2022-08-28T23:46:06.107Z,14.80
2022-08-28T23:48:33.176Z,14.88
2022-08-28T23:51:02.552Z,16.20
2022-08-28T23:53:29.522Z,14.02
2022-08-28T23:55:59.584Z,15.57
2022-08-28T23:58:31.917Z,15.68
